Boa Tyr — LAMU — position and weather

sailwx.info

Track history (hours):
 
Tides and Currents Weather Stations Pressure Air Temp Water Temp Dewpoint Dewpoint Depression Visibility Wind Speed Wind Dir Waves Ship Positions

Boa Tyr

Last reported at 2016-May-28 10:19 UTC. Time now 2016-May-29 23:06 UTC.
Position N 66°37' E 012°59'.

Length 31 m; draft 5 m.

Type: Tug. MMSI: 258395000.

Date/timePositionNaut miles runAvg speedWind from/ knotsBaromVisibWave heightAir tempDewpointWater temp
2016-May-28 10:19N 66°37' E 012°59'6 7.5
2016-May-28 09:33N 66°32' E 012°58'9 9.0
2016-May-28 08:30N 66°22' E 012°58'72 3.0
2016-May-27 08:09N 65°15' E 011°56'6 9.8
2016-May-27 07:33N 65°10' E 011°51'10 9.8
2016-May-27 06:34N 65°01' E 011°40'9 9.0
2016-May-27 05:33N 64°55' E 011°24'5 5.2
2016-May-27 04:33N 64°52' E 011°14'0 0.0
2016-May-27 03:33N 64°52' E 011°14'0 0.0
2016-May-27 02:33N 64°52' E 011°14'0 0.0
2016-May-27 01:33N 64°52' E 011°14'0 0.0
2016-May-27 00:33N 64°52' E 011°14'0 0.0
2016-May-26 23:33N 64°52' E 011°14'0 0.0
2016-May-26 22:33N 64°52' E 011°14'0 0.0
2016-May-26 21:33N 64°52' E 011°14'0 0.0
2016-May-26 20:33N 64°52' E 011°14'0 0.0
2016-May-26 19:33N 64°52' E 011°14'0 0.1
2016-May-26 18:34N 64°52' E 011°15'8 7.7
2016-May-26 17:33N 64°46' E 011°02'73 8.1
2016-May-26 08:33N 63°44' E 009°35'0 0.0
2016-May-26 07:33N 63°44' E 009°35'0 0.0
2016-May-26 06:33N 63°44' E 009°35'0 0.0
2016-May-26 05:33N 63°44' E 009°35'0 0.0
2016-May-26 04:33N 63°44' E 009°35'0 0.0
2016-May-26 03:33N 63°44' E 009°35'0 0.0
2016-May-26 02:33N 63°44' E 009°35'0 0.0
2016-May-26 01:33N 63°44' E 009°35'0 0.0
2016-May-26 00:33N 63°44' E 009°35'0 0.0
2016-May-25 23:33N 63°44' E 009°35'0 0.0
2016-May-25 22:33N 63°44' E 009°35'0 0.0
2016-May-25 21:33N 63°44' E 009°35'0 0.0
2016-May-25 20:33N 63°44' E 009°35'5 5.2
2016-May-25 19:33N 63°39' E 009°29'10 8.0
2016-May-25 18:21N 63°36' E 009°49'8 9.7
2016-May-25 17:34N 63°29' E 009°58'1010.0
2016-May-25 16:33N 63°27' E 010°20'1 0.8
2016-May-25 15:33N 63°27' E 010°21'0 0.0
2016-May-25 14:33N 63°27' E 010°21'2 1.8
2016-May-25 13:33N 63°26' E 010°25'0 0.0
2016-May-25 12:33N 63°26' E 010°25'0 0.0
2016-May-25 11:33N 63°26' E 010°25'0 0.0
2016-May-25 10:33N 63°26' E 010°25'0 0.0
2016-May-25 09:33N 63°26' E 010°25'0 0.0
2016-May-25 08:33N 63°26' E 010°25'0 0.0
2016-May-25 07:33N 63°26' E 010°25'0 0.0
2016-May-25 06:33N 63°26' E 010°25'0 0.0
2016-May-25 05:33N 63°26' E 010°25'0 0.0
2016-May-25 04:33N 63°26' E 010°25'0 0.0
2016-May-25 03:33N 63°26' E 010°25'5 4.9
2016-May-25 02:33N 63°28' E 010°14'10 9.5
2016-May-25 01:33N 63°31' E 009°54'3 2.6
2016-May-25 00:33N 63°34' E 009°54'0 0.0
2016-May-24 23:33N 63°34' E 009°54'0 0.1
2016-May-24 22:33N 63°34' E 009°54'0 0.0
2016-May-24 21:33N 63°34' E 009°54'0 0.0
2016-May-24 20:28N 63°34' E 009°54'0 0.0
2016-May-24 19:32N 63°34' E 009°54'0 0.0
2016-May-24 18:33N 63°34' E 009°54'7 6.4
2016-May-24 17:30N 63°39' E 009°44'7 7.2
2016-May-24 16:33N 63°39' E 009°29'5 5.1
2016-May-24 15:33N 63°44' E 009°35'0 0.0
2016-May-24 14:33N 63°44' E 009°35'0 0.0
2016-May-24 13:33N 63°44' E 009°35'0 0.0
2016-May-24 12:33N 63°44' E 009°35'0 0.0
2016-May-24 11:33N 63°44' E 009°35'0 0.0
2016-May-24 10:33N 63°44' E 009°35'0 0.0
2016-May-24 09:33N 63°44' E 009°35'0 0.0
2016-May-24 08:33N 63°44' E 009°35'0 0.0
2016-May-24 07:33N 63°44' E 009°35'0 0.0
2016-May-24 06:33N 63°44' E 009°35'0 0.0
2016-May-24 05:33N 63°44' E 009°35'0 0.0
2016-May-24 04:33N 63°44' E 009°35'0 0.0
2016-May-24 03:33N 63°44' E 009°35'0 0.0
2016-May-24 02:33N 63°44' E 009°35'0 0.0
2016-May-24 01:33N 63°44' E 009°35'0 0.0
2016-May-24 00:33N 63°44' E 009°35'0 0.0
2016-May-23 23:33N 63°44' E 009°35'0 0.0
2016-May-23 22:33N 63°44' E 009°35'0 0.0
2016-May-23 21:33N 63°44' E 009°35'74 7.9
2016-May-23 12:14N 64°47' E 011°04'6 8.9
2016-May-23 11:34N 64°51' E 011°14'8 8.5
2016-May-23 10:33N 64°57' E 011°29'9 9.2
2016-May-23 09:33N 65°03' E 011°44'11 9.4
2016-May-23 08:20N 65°12' E 012°03'8 9.8
2016-May-23 07:29N 65°17' E 012°18'10 1.3
2016-May-22 23:24N 65°11' E 011°58'2 2.5
2016-May-22 22:33N 65°13' E 011°55'3 2.7
2016-May-22 21:29N 65°16' E 011°57'3 2.8
2016-May-22 20:32N 65°19' E 011°59'3 2.8
2016-May-22 19:23N 65°21' E 012°03'12 0.8
2016-May-22 03:29N 65°10' E 011°51'6 6.3
2016-May-22 02:33N 65°05' E 011°47'6 5.8
2016-May-22 01:33N 65°00' E 011°38'6 6.0
2016-May-22 00:33N 64°56' E 011°27'6 6.3
2016-May-21 23:33N 64°52' E 011°17'6 6.3
2016-May-21 22:33N 64°47' E 011°08'5 4.6
2016-May-21 21:32N 64°43' E 011°14'7 7.2
2016-May-21 20:33N 64°46' E 011°30'3 1.4
2016-May-21 18:29N 64°47' E 011°36'4 4.5
2016-May-21 17:33N 64°45' E 011°27'4 4.5
2016-May-21 16:33N 64°44' E 011°18'4 4.1
2016-May-21 15:33N 64°42' E 011°08'4 3.9
2016-May-21 14:27N 64°42' E 010°59'10 3.6
2016-May-21 11:33N 64°50' E 011°11'3 3.0
2016-May-21 10:33N 64°52' E 011°17'3 2.8
2016-May-21 09:34N 64°54' E 011°21'3 3.5
2016-May-21 08:33N 64°58' E 011°23'3 3.5
2016-May-21 07:33N 65°00' E 011°30'4 3.6
2016-May-21 06:33N 65°02' E 011°37'3 3.5
2016-May-21 05:33N 65°04' E 011°44'3 3.5
2016-May-21 04:33N 65°07' E 011°49'4 3.6
2016-May-21 03:33N 65°10' E 011°51'4 3.6
2016-May-21 02:33N 65°13' E 011°54'3 3.1
2016-May-21 01:33N 65°16' E 011°56'3 3.3
2016-May-21 00:30N 65°19' E 012°00'53 3.3
2016-May-20 08:24N 66°10' E 012°41'9 0.4
2016-May-19 09:04N 66°10' E 013°03'7 9.9
2016-May-19 08:23N 66°07' E 012°47'  
Track history (hours):
 
Tides and Currents Weather Stations Pressure Air Temp Water Temp Dewpoint Dewpoint Depression Visibility Wind Speed Wind Dir Waves Ship Positions

Boa Tyr

Last reported at 2016-May-28 10:19 UTC. Time now 2016-May-29 23:06 UTC.
Position N 66°37' E 012°59'.

Length 31 m; draft 5 m.

Type: Tug. MMSI: 258395000.

Date/timePositionNaut miles runAvg speedWind from/ knotsBaromVisibWave heightAir tempDewpointWater temp
2016-May-28 10:19N 66°37' E 012°59'6 7.5
2016-May-28 09:33N 66°32' E 012°58'9 9.0
2016-May-28 08:30N 66°22' E 012°58'72 3.0
2016-May-27 08:09N 65°15' E 011°56'6 9.8
2016-May-27 07:33N 65°10' E 011°51'10 9.8
2016-May-27 06:34N 65°01' E 011°40'9 9.0
2016-May-27 05:33N 64°55' E 011°24'5 5.2
2016-May-27 04:33N 64°52' E 011°14'0 0.0
2016-May-27 03:33N 64°52' E 011°14'0 0.0
2016-May-27 02:33N 64°52' E 011°14'0 0.0
2016-May-27 01:33N 64°52' E 011°14'0 0.0
2016-May-27 00:33N 64°52' E 011°14'0 0.0
2016-May-26 23:33N 64°52' E 011°14'0 0.0
2016-May-26 22:33N 64°52' E 011°14'0 0.0
2016-May-26 21:33N 64°52' E 011°14'0 0.0
2016-May-26 20:33N 64°52' E 011°14'0 0.0
2016-May-26 19:33N 64°52' E 011°14'0 0.1
2016-May-26 18:34N 64°52' E 011°15'8 7.7
2016-May-26 17:33N 64°46' E 011°02'73 8.1
2016-May-26 08:33N 63°44' E 009°35'0 0.0
2016-May-26 07:33N 63°44' E 009°35'0 0.0
2016-May-26 06:33N 63°44' E 009°35'0 0.0
2016-May-26 05:33N 63°44' E 009°35'0 0.0
2016-May-26 04:33N 63°44' E 009°35'0 0.0
2016-May-26 03:33N 63°44' E 009°35'0 0.0
2016-May-26 02:33N 63°44' E 009°35'0 0.0
2016-May-26 01:33N 63°44' E 009°35'0 0.0
2016-May-26 00:33N 63°44' E 009°35'0 0.0
2016-May-25 23:33N 63°44' E 009°35'0 0.0
2016-May-25 22:33N 63°44' E 009°35'0 0.0
2016-May-25 21:33N 63°44' E 009°35'0 0.0
2016-May-25 20:33N 63°44' E 009°35'5 5.2
2016-May-25 19:33N 63°39' E 009°29'10 8.0
2016-May-25 18:21N 63°36' E 009°49'8 9.7
2016-May-25 17:34N 63°29' E 009°58'1010.0
2016-May-25 16:33N 63°27' E 010°20'1 0.8
2016-May-25 15:33N 63°27' E 010°21'0 0.0
2016-May-25 14:33N 63°27' E 010°21'2 1.8
2016-May-25 13:33N 63°26' E 010°25'0 0.0
2016-May-25 12:33N 63°26' E 010°25'0 0.0
2016-May-25 11:33N 63°26' E 010°25'0 0.0
2016-May-25 10:33N 63°26' E 010°25'0 0.0
2016-May-25 09:33N 63°26' E 010°25'0 0.0
2016-May-25 08:33N 63°26' E 010°25'0 0.0
2016-May-25 07:33N 63°26' E 010°25'0 0.0
2016-May-25 06:33N 63°26' E 010°25'0 0.0
2016-May-25 05:33N 63°26' E 010°25'0 0.0
2016-May-25 04:33N 63°26' E 010°25'0 0.0
2016-May-25 03:33N 63°26' E 010°25'5 4.9
2016-May-25 02:33N 63°28' E 010°14'10 9.5
2016-May-25 01:33N 63°31' E 009°54'3 2.6
2016-May-25 00:33N 63°34' E 009°54'0 0.0
2016-May-24 23:33N 63°34' E 009°54'0 0.1
2016-May-24 22:33N 63°34' E 009°54'0 0.0
2016-May-24 21:33N 63°34' E 009°54'0 0.0
2016-May-24 20:28N 63°34' E 009°54'0 0.0
2016-May-24 19:32N 63°34' E 009°54'0 0.0
2016-May-24 18:33N 63°34' E 009°54'7 6.4
2016-May-24 17:30N 63°39' E 009°44'7 7.2
2016-May-24 16:33N 63°39' E 009°29'5 5.1
2016-May-24 15:33N 63°44' E 009°35'0 0.0
2016-May-24 14:33N 63°44' E 009°35'0 0.0
2016-May-24 13:33N 63°44' E 009°35'0 0.0
2016-May-24 12:33N 63°44' E 009°35'0 0.0
2016-May-24 11:33N 63°44' E 009°35'0 0.0
2016-May-24 10:33N 63°44' E 009°35'0 0.0
2016-May-24 09:33N 63°44' E 009°35'0 0.0
2016-May-24 08:33N 63°44' E 009°35'0 0.0
2016-May-24 07:33N 63°44' E 009°35'0 0.0
2016-May-24 06:33N 63°44' E 009°35'0 0.0
2016-May-24 05:33N 63°44' E 009°35'0 0.0
2016-May-24 04:33N 63°44' E 009°35'0 0.0
2016-May-24 03:33N 63°44' E 009°35'0 0.0
2016-May-24 02:33N 63°44' E 009°35'0 0.0
2016-May-24 01:33N 63°44' E 009°35'0 0.0
2016-May-24 00:33N 63°44' E 009°35'0 0.0
2016-May-23 23:33N 63°44' E 009°35'0 0.0
2016-May-23 22:33N 63°44' E 009°35'0 0.0
2016-May-23 21:33N 63°44' E 009°35'74 7.9
2016-May-23 12:14N 64°47' E 011°04'6 8.9
2016-May-23 11:34N 64°51' E 011°14'8 8.5
2016-May-23 10:33N 64°57' E 011°29'9 9.2
2016-May-23 09:33N 65°03' E 011°44'11 9.4
2016-May-23 08:20N 65°12' E 012°03'8 9.8
2016-May-23 07:29N 65°17' E 012°18'10 1.3
2016-May-22 23:24N 65°11' E 011°58'2 2.5
2016-May-22 22:33N 65°13' E 011°55'3 2.7
2016-May-22 21:29N 65°16' E 011°57'3 2.8
2016-May-22 20:32N 65°19' E 011°59'3 2.8
2016-May-22 19:23N 65°21' E 012°03'12 0.8
2016-May-22 03:29N 65°10' E 011°51'6 6.3
2016-May-22 02:33N 65°05' E 011°47'6 5.8
2016-May-22 01:33N 65°00' E 011°38'6 6.0
2016-May-22 00:33N 64°56' E 011°27'6 6.3
2016-May-21 23:33N 64°52' E 011°17'6 6.3
2016-May-21 22:33N 64°47' E 011°08'5 4.6
2016-May-21 21:32N 64°43' E 011°14'7 7.2
2016-May-21 20:33N 64°46' E 011°30'3 1.4
2016-May-21 18:29N 64°47' E 011°36'4 4.5
2016-May-21 17:33N 64°45' E 011°27'4 4.5
2016-May-21 16:33N 64°44' E 011°18'4 4.1
2016-May-21 15:33N 64°42' E 011°08'4 3.9
2016-May-21 14:27N 64°42' E 010°59'10 3.6
2016-May-21 11:33N 64°50' E 011°11'3 3.0
2016-May-21 10:33N 64°52' E 011°17'3 2.8
2016-May-21 09:34N 64°54' E 011°21'3 3.5
2016-May-21 08:33N 64°58' E 011°23'3 3.5
2016-May-21 07:33N 65°00' E 011°30'4 3.6
2016-May-21 06:33N 65°02' E 011°37'3 3.5
2016-May-21 05:33N 65°04' E 011°44'3 3.5
2016-May-21 04:33N 65°07' E 011°49'4 3.6
2016-May-21 03:33N 65°10' E 011°51'4 3.6
2016-May-21 02:33N 65°13' E 011°54'3 3.1
2016-May-21 01:33N 65°16' E 011°56'3 3.3
2016-May-21 00:30N 65°19' E 012°00'53 3.3
2016-May-20 08:24N 66°10' E 012°41'9 0.4
2016-May-19 09:04N 66°10' E 013°03'7 9.9
2016-May-19 08:23N 66°07' E 012°47'  

Dump ship's entire track history